sensor_id;sensor_type;location;lat;lon;timestamp;P1;durP1;ratioP1;P2;durP2;ratioP2
35324;SDS011;35135;47.510;19.036;2022-11-06T00:01:05;8.23;;;7.32;;
35324;SDS011;35135;47.510;19.036;2022-11-06T00:03:35;8.02;;;6.97;;
35324;SDS011;35135;47.510;19.036;2022-11-06T00:06:11;7.95;;;6.50;;
35324;SDS011;35135;47.510;19.036;2022-11-06T00:08:59;7.18;;;6.47;;
35324;SDS011;35135;47.510;19.036;2022-11-06T00:11:26;7.35;;;6.45;;
35324;SDS011;35135;47.510;19.036;2022-11-06T00:13:52;6.97;;;6.20;;
35324;SDS011;35135;47.510;19.036;2022-11-06T00:16:18;6.47;;;5.65;;
35324;SDS011;35135;47.510;19.036;2022-11-06T00:18:44;8.35;;;6.75;;
35324;SDS011;35135;47.510;19.036;2022-11-06T00:23:38;6.85;;;6.15;;
35324;SDS011;35135;47.510;19.036;2022-11-06T00:26:05;6.28;;;5.68;;
35324;SDS011;35135;47.510;19.036;2022-11-06T00:28:38;6.72;;;5.95;;
35324;SDS011;35135;47.510;19.036;2022-11-06T00:31:07;6.70;;;6.00;;
35324;SDS011;35135;47.510;19.036;2022-11-06T00:33:34;7.85;;;5.90;;
35324;SDS011;35135;47.510;19.036;2022-11-06T00:36:01;6.28;;;5.50;;
35324;SDS011;35135;47.510;19.036;2022-11-06T00:38:28;6.95;;;5.70;;
35324;SDS011;35135;47.510;19.036;2022-11-06T00:40:54;7.55;;;5.90;;
35324;SDS011;35135;47.510;19.036;2022-11-06T00:43:19;6.38;;;5.15;;
35324;SDS011;35135;47.510;19.036;2022-11-06T00:45:45;5.40;;;4.90;;
35324;SDS011;35135;47.510;19.036;2022-11-06T00:48:10;6.53;;;5.15;;
35324;SDS011;35135;47.510;19.036;2022-11-06T00:50:36;5.60;;;5.03;;
35324;SDS011;35135;47.510;19.036;2022-11-06T00:53:02;5.97;;;4.70;;
35324;SDS011;35135;47.510;19.036;2022-11-06T00:55:27;5.88;;;5.13;;
35324;SDS011;35135;47.510;19.036;2022-11-06T00:57:53;5.55;;;4.50;;
35324;SDS011;35135;47.510;19.036;2022-11-06T01:00:19;5.75;;;4.90;;
35324;SDS011;35135;47.510;19.036;2022-11-06T01:02:45;5.57;;;4.47;;
35324;SDS011;35135;47.510;19.036;2022-11-06T01:05:11;5.28;;;4.78;;
35324;SDS011;35135;47.510;19.036;2022-11-06T01:07:37;4.97;;;4.45;;
35324;SDS011;35135;47.510;19.036;2022-11-06T01:10:04;6.15;;;4.72;;
35324;SDS011;35135;47.510;19.036;2022-11-06T01:12:31;4.90;;;4.40;;
35324;SDS011;35135;47.510;19.036;2022-11-06T01:14:57;4.63;;;4.13;;
35324;SDS011;35135;47.510;19.036;2022-11-06T01:17:23;5.05;;;4.55;;
35324;SDS011;35135;47.510;19.036;2022-11-06T01:19:49;5.22;;;4.70;;
35324;SDS011;35135;47.510;19.036;2022-11-06T01:22:15;6.00;;;4.15;;
35324;SDS011;35135;47.510;19.036;2022-11-06T01:24:40;5.88;;;4.63;;
35324;SDS011;35135;47.510;19.036;2022-11-06T01:27:06;4.55;;;4.05;;
35324;SDS011;35135;47.510;19.036;2022-11-06T01:29:32;5.25;;;4.38;;
35324;SDS011;35135;47.510;19.036;2022-11-06T01:31:57;5.63;;;4.03;;
35324;SDS011;35135;47.510;19.036;2022-11-06T01:34:23;11.95;;;4.43;;
35324;SDS011;35135;47.510;19.036;2022-11-06T01:36:48;4.07;;;3.67;;
35324;SDS011;35135;47.510;19.036;2022-11-06T01:39:14;4.55;;;4.00;;
35324;SDS011;35135;47.510;19.036;2022-11-06T01:41:43;4.75;;;3.75;;
35324;SDS011;35135;47.510;19.036;2022-11-06T01:47:27;4.47;;;3.72;;
35324;SDS011;35135;47.510;19.036;2022-11-06T01:49:57;4.13;;;3.58;;
35324;SDS011;35135;47.510;19.036;2022-11-06T01:52:26;3.30;;;3.00;;
35324;SDS011;35135;47.510;19.036;2022-11-06T01:54:54;3.78;;;3.30;;
35324;SDS011;35135;47.510;19.036;2022-11-06T01:57:23;4.30;;;3.47;;
35324;SDS011;35135;47.510;19.036;2022-11-06T01:59:49;3.83;;;3.42;;
35324;SDS011;35135;47.510;19.036;2022-11-06T02:02:17;4.13;;;3.40;;
35324;SDS011;35135;47.510;19.036;2022-11-06T02:04:44;3.72;;;3.15;;
35324;SDS011;35135;47.510;19.036;2022-11-06T02:07:15;3.78;;;3.38;;
35324;SDS011;35135;47.510;19.036;2022-11-06T02:09:42;4.40;;;3.50;;
35324;SDS011;35135;47.510;19.036;2022-11-06T02:17:57;3.10;;;2.50;;
35324;SDS011;35135;47.510;19.036;2022-11-06T02:28:38;4.03;;;3.10;;
35324;SDS011;35135;47.510;19.036;2022-11-06T02:31:12;3.10;;;2.65;;
35324;SDS011;35135;47.510;19.036;2022-11-06T02:34:23;3.28;;;2.92;;
35324;SDS011;35135;47.510;19.036;2022-11-06T02:36:35;3.10;;;2.60;;
35324;SDS011;35135;47.510;19.036;2022-11-06T02:39:08;3.22;;;2.67;;
35324;SDS011;35135;47.510;19.036;2022-11-06T02:41:40;3.35;;;2.65;;
35324;SDS011;35135;47.510;19.036;2022-11-06T02:44:08;3.40;;;2.63;;
35324;SDS011;35135;47.510;19.036;2022-11-06T02:46:45;3.20;;;2.70;;
35324;SDS011;35135;47.510;19.036;2022-11-06T02:49:16;2.80;;;2.40;;
35324;SDS011;35135;47.510;19.036;2022-11-06T02:51:47;2.67;;;2.47;;
35324;SDS011;35135;47.510;19.036;2022-11-06T02:54:16;3.15;;;2.70;;
35324;SDS011;35135;47.510;19.036;2022-11-06T02:56:43;2.40;;;2.20;;
35324;SDS011;35135;47.510;19.036;2022-11-06T02:59:19;2.70;;;2.28;;
35324;SDS011;35135;47.510;19.036;2022-11-06T03:01:59;2.88;;;2.25;;
35324;SDS011;35135;47.510;19.036;2022-11-06T03:04:34;2.88;;;2.50;;
35324;SDS011;35135;47.510;19.036;2022-11-06T03:07:26;2.97;;;2.40;;
35324;SDS011;35135;47.510;19.036;2022-11-06T03:09:56;2.75;;;2.15;;
35324;SDS011;35135;47.510;19.036;2022-11-06T03:12:32;2.75;;;2.28;;
35324;SDS011;35135;47.510;19.036;2022-11-06T03:15:26;2.50;;;2.30;;
35324;SDS011;35135;47.510;19.036;2022-11-06T03:18:01;2.20;;;1.98;;
35324;SDS011;35135;47.510;19.036;2022-11-06T03:23:19;2.30;;;2.00;;
35324;SDS011;35135;47.510;19.036;2022-11-06T03:25:59;2.10;;;1.80;;
35324;SDS011;35135;47.510;19.036;2022-11-06T03:28:37;2.80;;;2.20;;
35324;SDS011;35135;47.510;19.036;2022-11-06T03:31:12;2.95;;;2.30;;
35324;SDS011;35135;47.510;19.036;2022-11-06T03:36:14;2.75;;;2.15;;
35324;SDS011;35135;47.510;19.036;2022-11-06T03:38:57;2.58;;;1.77;;
35324;SDS011;35135;47.510;19.036;2022-11-06T03:44:07;2.50;;;2.13;;
35324;SDS011;35135;47.510;19.036;2022-11-06T03:46:36;2.13;;;1.75;;
35324;SDS011;35135;47.510;19.036;2022-11-06T03:49:07;3.17;;;1.80;;
35324;SDS011;35135;47.510;19.036;2022-11-06T03:54:17;2.30;;;2.10;;
35324;SDS011;35135;47.510;19.036;2022-11-06T03:56:55;1.85;;;1.65;;
35324;SDS011;35135;47.510;19.036;2022-11-06T03:59:25;2.63;;;2.10;;
35324;SDS011;35135;47.510;19.036;2022-11-06T04:01:55;2.72;;;2.10;;
35324;SDS011;35135;47.510;19.036;2022-11-06T04:04:24;2.10;;;1.70;;
35324;SDS011;35135;47.510;19.036;2022-11-06T04:07:02;1.90;;;1.55;;
35324;SDS011;35135;47.510;19.036;2022-11-06T04:09:32;1.60;;;1.50;;
35324;SDS011;35135;47.510;19.036;2022-11-06T04:12:20;2.20;;;1.73;;
35324;SDS011;35135;47.510;19.036;2022-11-06T04:15:14;1.98;;;1.67;;
35324;SDS011;35135;47.510;19.036;2022-11-06T04:17:42;1.63;;;1.33;;
35324;SDS011;35135;47.510;19.036;2022-11-06T04:20:11;2.30;;;1.70;;
35324;SDS011;35135;47.510;19.036;2022-11-06T04:23:04;1.95;;;1.75;;
35324;SDS011;35135;47.510;19.036;2022-11-06T04:25:55;1.58;;;1.48;;
35324;SDS011;35135;47.510;19.036;2022-11-06T04:29:02;1.50;;;1.40;;
35324;SDS011;35135;47.510;19.036;2022-11-06T04:40:14;1.80;;;1.52;;
35324;SDS011;35135;47.510;19.036;2022-11-06T04:42:49;1.98;;;1.70;;
35324;SDS011;35135;47.510;19.036;2022-11-06T04:45:26;1.58;;;1.48;;
35324;SDS011;35135;47.510;19.036;2022-11-06T04:47:58;1.80;;;1.20;;
35324;SDS011;35135;47.510;19.036;2022-11-06T04:50:25;2.60;;;1.50;;
35324;SDS011;35135;47.510;19.036;2022-11-06T04:52:52;1.67;;;1.40;;
35324;SDS011;35135;47.510;19.036;2022-11-06T04:55:20;1.17;;;1.08;;
35324;SDS011;35135;47.510;19.036;2022-11-06T04:57:46;2.00;;;1.50;;
35324;SDS011;35135;47.510;19.036;2022-11-06T05:00:12;1.60;;;1.30;;
35324;SDS011;35135;47.510;19.036;2022-11-06T05:02:39;1.90;;;1.48;;
35324;SDS011;35135;47.510;19.036;2022-11-06T05:05:05;1.20;;;1.08;;
35324;SDS011;35135;47.510;19.036;2022-11-06T05:07:31;1.80;;;1.30;;
35324;SDS011;35135;47.510;19.036;2022-11-06T05:09:57;1.65;;;1.38;;
35324;SDS011;35135;47.510;19.036;2022-11-06T05:12:22;1.60;;;1.13;;
35324;SDS011;35135;47.510;19.036;2022-11-06T05:14:49;1.35;;;1.08;;
35324;SDS011;35135;47.510;19.036;2022-11-06T05:17:15;1.10;;;0.85;;
35324;SDS011;35135;47.510;19.036;2022-11-06T05:19:40;1.95;;;1.50;;
35324;SDS011;35135;47.510;19.036;2022-11-06T05:22:07;1.20;;;1.10;;
35324;SDS011;35135;47.510;19.036;2022-11-06T05:24:52;1.58;;;1.02;;
35324;SDS011;35135;47.510;19.036;2022-11-06T05:27:17;1.30;;;1.20;;
35324;SDS011;35135;47.510;19.036;2022-11-06T05:29:43;2.42;;;1.10;;
35324;SDS011;35135;47.510;19.036;2022-11-06T05:32:09;1.23;;;1.10;;
35324;SDS011;35135;47.510;19.036;2022-11-06T05:34:34;2.13;;;1.45;;
35324;SDS011;35135;47.510;19.036;2022-11-06T05:37:00;1.77;;;1.00;;
35324;SDS011;35135;47.510;19.036;2022-11-06T05:39:25;1.67;;;1.23;;
35324;SDS011;35135;47.510;19.036;2022-11-06T05:41:51;1.40;;;1.10;;
35324;SDS011;35135;47.510;19.036;2022-11-06T05:44:17;1.70;;;1.20;;
35324;SDS011;35135;47.510;19.036;2022-11-06T05:46:42;2.80;;;1.30;;
35324;SDS011;35135;47.510;19.036;2022-11-06T05:49:08;1.60;;;0.95;;
35324;SDS011;35135;47.510;19.036;2022-11-06T05:51:34;1.13;;;1.02;;
35324;SDS011;35135;47.510;19.036;2022-11-06T05:54:00;1.27;;;1.17;;
35324;SDS011;35135;47.510;19.036;2022-11-06T05:56:25;1.30;;;1.00;;
35324;SDS011;35135;47.510;19.036;2022-11-06T05:58:51;1.55;;;1.20;;
35324;SDS011;35135;47.510;19.036;2022-11-06T06:01:17;1.50;;;1.40;;
35324;SDS011;35135;47.510;19.036;2022-11-06T06:03:43;1.50;;;1.15;;
35324;SDS011;35135;47.510;19.036;2022-11-06T06:06:08;1.42;;;1.20;;
35324;SDS011;35135;47.510;19.036;2022-11-06T06:08:34;1.58;;;1.00;;
35324;SDS011;35135;47.510;19.036;2022-11-06T06:11:03;1.70;;;1.35;;
35324;SDS011;35135;47.510;19.036;2022-11-06T06:13:31;1.98;;;1.10;;
35324;SDS011;35135;47.510;19.036;2022-11-06T06:15:59;1.27;;;1.00;;
35324;SDS011;35135;47.510;19.036;2022-11-06T06:18:26;1.40;;;1.20;;
35324;SDS011;35135;47.510;19.036;2022-11-06T06:20:52;1.98;;;1.40;;
35324;SDS011;35135;47.510;19.036;2022-11-06T06:23:17;3.13;;;1.00;;
35324;SDS011;35135;47.510;19.036;2022-11-06T06:25:43;2.53;;;1.30;;
35324;SDS011;35135;47.510;19.036;2022-11-06T06:28:08;1.25;;;1.15;;
35324;SDS011;35135;47.510;19.036;2022-11-06T06:30:34;1.38;;;1.25;;
35324;SDS011;35135;47.510;19.036;2022-11-06T06:33:03;1.10;;;1.00;;
35324;SDS011;35135;47.510;19.036;2022-11-06T06:35:30;1.45;;;1.02;;
35324;SDS011;35135;47.510;19.036;2022-11-06T06:37:56;1.95;;;1.15;;
35324;SDS011;35135;47.510;19.036;2022-11-06T06:40:22;1.38;;;1.10;;
35324;SDS011;35135;47.510;19.036;2022-11-06T06:42:48;1.40;;;1.30;;
35324;SDS011;35135;47.510;19.036;2022-11-06T06:45:13;1.50;;;1.20;;
35324;SDS011;35135;47.510;19.036;2022-11-06T06:47:39;1.60;;;1.15;;
35324;SDS011;35135;47.510;19.036;2022-11-06T06:50:05;1.52;;;1.10;;
35324;SDS011;35135;47.510;19.036;2022-11-06T06:52:31;2.13;;;1.58;;
35324;SDS011;35135;47.510;19.036;2022-11-06T06:54:57;1.30;;;1.10;;
35324;SDS011;35135;47.510;19.036;2022-11-06T06:57:23;2.15;;;1.30;;
35324;SDS011;35135;47.510;19.036;2022-11-06T06:59:48;1.30;;;1.20;;
35324;SDS011;35135;47.510;19.036;2022-11-06T07:02:14;1.38;;;1.00;;
35324;SDS011;35135;47.510;19.036;2022-11-06T07:04:40;1.30;;;1.20;;
35324;SDS011;35135;47.510;19.036;2022-11-06T07:07:06;1.90;;;1.20;;
35324;SDS011;35135;47.510;19.036;2022-11-06T07:09:31;1.10;;;0.93;;
35324;SDS011;35135;47.510;19.036;2022-11-06T07:11:57;2.45;;;1.30;;
35324;SDS011;35135;47.510;19.036;2022-11-06T07:14:23;2.20;;;1.10;;
35324;SDS011;35135;47.510;19.036;2022-11-06T07:16:49;1.30;;;1.10;;
35324;SDS011;35135;47.510;19.036;2022-11-06T07:19:15;1.63;;;1.20;;
35324;SDS011;35135;47.510;19.036;2022-11-06T07:21:41;1.77;;;1.00;;
35324;SDS011;35135;47.510;19.036;2022-11-06T07:24:06;1.35;;;1.25;;
35324;SDS011;35135;47.510;19.036;2022-11-06T07:26:32;1.10;;;1.00;;
35324;SDS011;35135;47.510;19.036;2022-11-06T07:28:58;1.65;;;1.20;;
35324;SDS011;35135;47.510;19.036;2022-11-06T07:31:23;1.95;;;1.30;;
35324;SDS011;35135;47.510;19.036;2022-11-06T07:33:49;1.20;;;1.00;;
35324;SDS011;35135;47.510;19.036;2022-11-06T07:36:15;1.63;;;1.30;;
35324;SDS011;35135;47.510;19.036;2022-11-06T07:38:41;1.10;;;1.00;;
35324;SDS011;35135;47.510;19.036;2022-11-06T07:41:08;1.38;;;1.23;;
35324;SDS011;35135;47.510;19.036;2022-11-06T07:43:35;1.40;;;1.23;;
35324;SDS011;35135;47.510;19.036;2022-11-06T07:46:02;1.40;;;1.13;;
35324;SDS011;35135;47.510;19.036;2022-11-06T07:48:30;1.98;;;1.17;;
35324;SDS011;35135;47.510;19.036;2022-11-06T07:50:57;3.70;;;1.50;;
35324;SDS011;35135;47.510;19.036;2022-11-06T07:53:23;1.63;;;1.35;;
35324;SDS011;35135;47.510;19.036;2022-11-06T07:55:49;1.60;;;1.20;;
35324;SDS011;35135;47.510;19.036;2022-11-06T07:58:16;1.30;;;1.05;;
35324;SDS011;35135;47.510;19.036;2022-11-06T08:00:46;1.77;;;1.27;;
35324;SDS011;35135;47.510;19.036;2022-11-06T08:03:19;1.92;;;1.10;;
35324;SDS011;35135;47.510;19.036;2022-11-06T08:05:46;1.63;;;1.25;;
35324;SDS011;35135;47.510;19.036;2022-11-06T08:08:12;1.33;;;1.17;;
35324;SDS011;35135;47.510;19.036;2022-11-06T08:10:38;2.42;;;1.30;;
35324;SDS011;35135;47.510;19.036;2022-11-06T08:13:07;3.63;;;1.40;;
35324;SDS011;35135;47.510;19.036;2022-11-06T08:15:36;1.85;;;1.23;;
35324;SDS011;35135;47.510;19.036;2022-11-06T08:18:03;1.67;;;1.30;;
35324;SDS011;35135;47.510;19.036;2022-11-06T08:20:29;1.40;;;1.20;;
35324;SDS011;35135;47.510;19.036;2022-11-06T08:22:58;3.08;;;1.50;;
35324;SDS011;35135;47.510;19.036;2022-11-06T08:25:25;1.65;;;1.20;;
35324;SDS011;35135;47.510;19.036;2022-11-06T08:27:54;2.58;;;1.35;;
35324;SDS011;35135;47.510;19.036;2022-11-06T08:30:24;2.85;;;1.40;;
35324;SDS011;35135;47.510;19.036;2022-11-06T08:32:50;2.08;;;1.35;;
35324;SDS011;35135;47.510;19.036;2022-11-06T08:35:16;2.33;;;1.55;;
35324;SDS011;35135;47.510;19.036;2022-11-06T08:37:42;2.63;;;1.35;;
35324;SDS011;35135;47.510;19.036;2022-11-06T08:40:08;2.70;;;1.40;;
35324;SDS011;35135;47.510;19.036;2022-11-06T08:42:34;2.03;;;1.70;;
35324;SDS011;35135;47.510;19.036;2022-11-06T08:45:00;2.53;;;1.33;;
35324;SDS011;35135;47.510;19.036;2022-11-06T08:47:26;2.33;;;1.40;;
35324;SDS011;35135;47.510;19.036;2022-11-06T08:49:51;3.38;;;1.52;;
35324;SDS011;35135;47.510;19.036;2022-11-06T08:52:17;2.72;;;1.42;;
35324;SDS011;35135;47.510;19.036;2022-11-06T08:54:43;1.70;;;1.50;;
35324;SDS011;35135;47.510;19.036;2022-11-06T08:57:08;2.45;;;1.40;;
35324;SDS011;35135;47.510;19.036;2022-11-06T08:59:34;1.60;;;1.30;;
35324;SDS011;35135;47.510;19.036;2022-11-06T09:01:59;1.88;;;1.63;;
35324;SDS011;35135;47.510;19.036;2022-11-06T09:04:26;1.58;;;1.35;;
35324;SDS011;35135;47.510;19.036;2022-11-06T09:06:51;1.60;;;1.45;;
35324;SDS011;35135;47.510;19.036;2022-11-06T09:09:17;2.38;;;1.45;;
35324;SDS011;35135;47.510;19.036;2022-11-06T09:11:43;2.63;;;1.52;;
35324;SDS011;35135;47.510;19.036;2022-11-06T09:14:08;3.05;;;1.45;;
35324;SDS011;35135;47.510;19.036;2022-11-06T09:16:34;3.95;;;1.60;;
35324;SDS011;35135;47.510;19.036;2022-11-06T09:19:00;12.80;;;2.17;;
35324;SDS011;35135;47.510;19.036;2022-11-06T09:21:25;2.33;;;1.75;;
35324;SDS011;35135;47.510;19.036;2022-11-06T09:23:51;2.75;;;1.80;;
35324;SDS011;35135;47.510;19.036;2022-11-06T09:26:17;3.22;;;1.60;;
35324;SDS011;35135;47.510;19.036;2022-11-06T09:28:42;3.97;;;1.90;;
35324;SDS011;35135;47.510;19.036;2022-11-06T09:31:08;2.13;;;1.88;;
35324;SDS011;35135;47.510;19.036;2022-11-06T09:33:34;9.35;;;2.30;;
35324;SDS011;35135;47.510;19.036;2022-11-06T09:36:02;2.10;;;1.90;;
35324;SDS011;35135;47.510;19.036;2022-11-06T09:38:29;3.00;;;1.95;;
35324;SDS011;35135;47.510;19.036;2022-11-06T09:40:58;2.78;;;2.05;;
35324;SDS011;35135;47.510;19.036;2022-11-06T09:46:21;2.80;;;1.75;;
35324;SDS011;35135;47.510;19.036;2022-11-06T09:48:49;5.15;;;1.88;;
35324;SDS011;35135;47.510;19.036;2022-11-06T09:51:34;5.47;;;1.98;;
35324;SDS011;35135;47.510;19.036;2022-11-06T09:54:27;6.40;;;1.60;;
35324;SDS011;35135;47.510;19.036;2022-11-06T09:57:08;3.65;;;1.77;;
35324;SDS011;35135;47.510;19.036;2022-11-06T09:59:40;2.42;;;1.80;;
35324;SDS011;35135;47.510;19.036;2022-11-06T10:02:26;2.28;;;1.70;;
35324;SDS011;35135;47.510;19.036;2022-11-06T10:05:05;2.13;;;1.90;;
35324;SDS011;35135;47.510;19.036;2022-11-06T10:07:41;2.58;;;1.73;;
35324;SDS011;35135;47.510;19.036;2022-11-06T10:10:13;5.95;;;1.70;;
35324;SDS011;35135;47.510;19.036;2022-11-06T10:15:33;2.60;;;2.03;;
35324;SDS011;35135;47.510;19.036;2022-11-06T10:26:08;2.80;;;1.73;;
35324;SDS011;35135;47.510;19.036;2022-11-06T10:36:53;4.55;;;2.30;;
35324;SDS011;35135;47.510;19.036;2022-11-06T10:39:33;4.22;;;2.33;;
35324;SDS011;35135;47.510;19.036;2022-11-06T10:42:14;4.82;;;2.40;;
35324;SDS011;35135;47.510;19.036;2022-11-06T10:44:47;7.07;;;2.95;;
35324;SDS011;35135;47.510;19.036;2022-11-06T10:47:42;5.65;;;2.80;;
35324;SDS011;35135;47.510;19.036;2022-11-06T10:50:09;4.63;;;2.85;;
35324;SDS011;35135;47.510;19.036;2022-11-06T10:52:40;4.53;;;2.67;;
35324;SDS011;35135;47.510;19.036;2022-11-06T11:00:41;9.45;;;4.32;;
35324;SDS011;35135;47.510;19.036;2022-11-06T11:03:14;13.65;;;7.53;;
35324;SDS011;35135;47.510;19.036;2022-11-06T11:05:47;33.78;;;11.35;;
35324;SDS011;35135;47.510;19.036;2022-11-06T11:13:45;30.10;;;13.65;;
35324;SDS011;35135;47.510;19.036;2022-11-06T11:16:33;31.60;;;13.45;;
35324;SDS011;35135;47.510;19.036;2022-11-06T11:20:08;23.30;;;12.88;;
35324;SDS011;35135;47.510;19.036;2022-11-06T11:22:03;27.60;;;12.88;;
35324;SDS011;35135;47.510;19.036;2022-11-06T11:25:00;23.50;;;12.32;;
35324;SDS011;35135;47.510;19.036;2022-11-06T11:27:33;28.90;;;13.68;;
35324;SDS011;35135;47.510;19.036;2022-11-06T11:30:02;27.48;;;12.50;;
35324;SDS011;35135;47.510;19.036;2022-11-06T11:32:29;22.00;;;12.27;;
35324;SDS011;35135;47.510;19.036;2022-11-06T11:34:55;23.90;;;11.93;;
35324;SDS011;35135;47.510;19.036;2022-11-06T11:39:47;22.90;;;12.02;;
35324;SDS011;35135;47.510;19.036;2022-11-06T11:47:32;20.33;;;11.55;;
35324;SDS011;35135;47.510;19.036;2022-11-06T11:50:14;25.48;;;12.20;;
35324;SDS011;35135;47.510;19.036;2022-11-06T11:52:51;21.52;;;11.90;;
35324;SDS011;35135;47.510;19.036;2022-11-06T11:55:27;22.92;;;12.02;;
35324;SDS011;35135;47.510;19.036;2022-11-06T11:57:54;26.55;;;12.95;;
35324;SDS011;35135;47.510;19.036;2022-11-06T12:00:23;21.45;;;11.68;;
35324;SDS011;35135;47.510;19.036;2022-11-06T12:02:57;22.23;;;12.27;;
35324;SDS011;35135;47.510;19.036;2022-11-06T12:05:33;22.95;;;11.68;;
35324;SDS011;35135;47.510;19.036;2022-11-06T12:08:02;23.88;;;11.93;;
35324;SDS011;35135;47.510;19.036;2022-11-06T12:13:20;21.35;;;10.88;;
35324;SDS011;35135;47.510;19.036;2022-11-06T12:15:53;19.38;;;10.77;;
35324;SDS011;35135;47.510;19.036;2022-11-06T12:18:20;18.23;;;10.07;;
35324;SDS011;35135;47.510;19.036;2022-11-06T12:21:07;17.05;;;9.88;;
35324;SDS011;35135;47.510;19.036;2022-11-06T12:23:43;17.60;;;10.75;;
35324;SDS011;35135;47.510;19.036;2022-11-06T12:29:04;16.35;;;10.05;;
35324;SDS011;35135;47.510;19.036;2022-11-06T12:31:44;14.77;;;7.82;;
35324;SDS011;35135;47.510;19.036;2022-11-06T12:37:42;7.65;;;4.57;;
35324;SDS011;35135;47.510;19.036;2022-11-06T12:42:52;6.60;;;3.80;;
35324;SDS011;35135;47.510;19.036;2022-11-06T12:45:23;8.38;;;3.88;;
35324;SDS011;35135;47.510;19.036;2022-11-06T12:48:03;7.10;;;4.00;;
35324;SDS011;35135;47.510;19.036;2022-11-06T13:02:21;4.22;;;3.50;;
35324;SDS011;35135;47.510;19.036;2022-11-06T13:05:00;5.32;;;2.97;;
35324;SDS011;35135;47.510;19.036;2022-11-06T13:19:04;14.60;;;3.70;;
35324;SDS011;35135;47.510;19.036;2022-11-06T13:24:21;14.77;;;3.92;;
35324;SDS011;35135;47.510;19.036;2022-11-06T13:27:19;11.32;;;3.42;;
35324;SDS011;35135;47.510;19.036;2022-11-06T13:29:56;8.30;;;3.53;;
35324;SDS011;35135;47.510;19.036;2022-11-06T13:32:30;8.63;;;3.50;;
35324;SDS011;35135;47.510;19.036;2022-11-06T13:34:58;9.75;;;4.30;;
35324;SDS011;35135;47.510;19.036;2022-11-06T13:37:30;8.00;;;4.88;;
35324;SDS011;35135;47.510;19.036;2022-11-06T13:40:04;8.52;;;4.63;;
35324;SDS011;35135;47.510;19.036;2022-11-06T13:42:38;5.80;;;5.10;;
35324;SDS011;35135;47.510;19.036;2022-11-06T13:45:12;5.80;;;4.72;;
35324;SDS011;35135;47.510;19.036;2022-11-06T13:48:04;6.40;;;4.75;;
35324;SDS011;35135;47.510;19.036;2022-11-06T13:50:49;6.80;;;4.80;;
35324;SDS011;35135;47.510;19.036;2022-11-06T13:53:30;8.60;;;4.35;;
35324;SDS011;35135;47.510;19.036;2022-11-06T13:56:00;6.65;;;4.15;;
35324;SDS011;35135;47.510;19.036;2022-11-06T14:04:32;9.70;;;4.30;;
35324;SDS011;35135;47.510;19.036;2022-11-06T14:07:15;12.52;;;3.78;;
35324;SDS011;35135;47.510;19.036;2022-11-06T14:09:42;6.47;;;4.03;;
35324;SDS011;35135;47.510;19.036;2022-11-06T14:12:14;13.85;;;4.25;;
35324;SDS011;35135;47.510;19.036;2022-11-06T14:14:44;7.10;;;3.85;;
35324;SDS011;35135;47.510;19.036;2022-11-06T14:20:05;6.07;;;3.90;;
35324;SDS011;35135;47.510;19.036;2022-11-06T14:32:54;5.40;;;3.53;;
35324;SDS011;35135;47.510;19.036;2022-11-06T14:38:09;7.57;;;3.20;;
35324;SDS011;35135;47.510;19.036;2022-11-06T14:40:41;6.65;;;3.30;;
35324;SDS011;35135;47.510;19.036;2022-11-06T14:43:18;4.95;;;3.20;;
35324;SDS011;35135;47.510;19.036;2022-11-06T14:45:51;8.40;;;3.00;;
35324;SDS011;35135;47.510;19.036;2022-11-06T14:48:42;9.48;;;3.95;;
35324;SDS011;35135;47.510;19.036;2022-11-06T14:51:10;10.23;;;3.33;;
35324;SDS011;35135;47.510;19.036;2022-11-06T14:53:38;7.35;;;3.30;;
35324;SDS011;35135;47.510;19.036;2022-11-06T14:56:19;10.95;;;3.72;;
35324;SDS011;35135;47.510;19.036;2022-11-06T14:59:07;6.30;;;3.50;;
35324;SDS011;35135;47.510;19.036;2022-11-06T15:01:43;9.32;;;3.58;;
35324;SDS011;35135;47.510;19.036;2022-11-06T15:04:41;6.10;;;3.40;;
35324;SDS011;35135;47.510;19.036;2022-11-06T15:07:25;8.43;;;3.90;;
35324;SDS011;35135;47.510;19.036;2022-11-06T15:09:51;9.52;;;4.30;;
35324;SDS011;35135;47.510;19.036;2022-11-06T15:12:16;11.43;;;3.75;;
35324;SDS011;35135;47.510;19.036;2022-11-06T15:17:11;5.85;;;3.60;;
35324;SDS011;35135;47.510;19.036;2022-11-06T15:20:04;13.50;;;4.40;;
35324;SDS011;35135;47.510;19.036;2022-11-06T15:22:37;8.45;;;3.80;;
35324;SDS011;35135;47.510;19.036;2022-11-06T15:30:59;8.75;;;3.97;;
35324;SDS011;35135;47.510;19.036;2022-11-06T15:33:27;13.95;;;4.00;;
35324;SDS011;35135;47.510;19.036;2022-11-06T15:36:02;5.45;;;3.90;;
35324;SDS011;35135;47.510;19.036;2022-11-06T15:38:36;9.55;;;4.03;;
35324;SDS011;35135;47.510;19.036;2022-11-06T15:41:06;12.10;;;4.07;;
35324;SDS011;35135;47.510;19.036;2022-11-06T15:43:37;8.50;;;4.25;;
35324;SDS011;35135;47.510;19.036;2022-11-06T15:48:35;8.40;;;4.10;;
35324;SDS011;35135;47.510;19.036;2022-11-06T15:51:01;10.18;;;4.50;;
35324;SDS011;35135;47.510;19.036;2022-11-06T15:53:28;9.63;;;4.85;;
35324;SDS011;35135;47.510;19.036;2022-11-06T15:58:25;13.30;;;3.72;;
35324;SDS011;35135;47.510;19.036;2022-11-06T16:00:53;7.32;;;3.70;;
35324;SDS011;35135;47.510;19.036;2022-11-06T16:03:20;10.85;;;3.67;;
35324;SDS011;35135;47.510;19.036;2022-11-06T16:05:51;7.95;;;3.75;;
35324;SDS011;35135;47.510;19.036;2022-11-06T16:08:19;8.93;;;4.55;;
35324;SDS011;35135;47.510;19.036;2022-11-06T16:10:47;6.47;;;4.00;;
35324;SDS011;35135;47.510;19.036;2022-11-06T16:13:14;6.75;;;3.60;;
35324;SDS011;35135;47.510;19.036;2022-11-06T16:18:26;6.77;;;4.20;;
35324;SDS011;35135;47.510;19.036;2022-11-06T16:20:57;8.48;;;3.90;;
35324;SDS011;35135;47.510;19.036;2022-11-06T16:23:43;8.80;;;3.97;;
35324;SDS011;35135;47.510;19.036;2022-11-06T16:26:17;9.07;;;4.20;;
35324;SDS011;35135;47.510;19.036;2022-11-06T16:28:56;8.35;;;4.28;;
35324;SDS011;35135;47.510;19.036;2022-11-06T16:31:23;5.35;;;3.70;;
35324;SDS011;35135;47.510;19.036;2022-11-06T16:33:52;6.38;;;3.90;;
35324;SDS011;35135;47.510;19.036;2022-11-06T16:36:22;9.57;;;4.45;;
35324;SDS011;35135;47.510;19.036;2022-11-06T16:38:49;6.22;;;4.03;;
35324;SDS011;35135;47.510;19.036;2022-11-06T16:41:17;5.40;;;4.30;;
35324;SDS011;35135;47.510;19.036;2022-11-06T16:44:19;7.43;;;4.18;;
35324;SDS011;35135;47.510;19.036;2022-11-06T16:49:45;9.05;;;4.63;;
35324;SDS011;35135;47.510;19.036;2022-11-06T16:54:47;8.63;;;4.63;;
35324;SDS011;35135;47.510;19.036;2022-11-06T16:57:16;7.63;;;4.60;;
35324;SDS011;35135;47.510;19.036;2022-11-06T16:59:52;10.35;;;5.40;;
35324;SDS011;35135;47.510;19.036;2022-11-06T17:02:21;9.65;;;4.97;;
35324;SDS011;35135;47.510;19.036;2022-11-06T17:04:48;7.20;;;4.60;;
35324;SDS011;35135;47.510;19.036;2022-11-06T17:07:18;10.57;;;4.78;;
35324;SDS011;35135;47.510;19.036;2022-11-06T17:09:45;10.80;;;5.30;;
35324;SDS011;35135;47.510;19.036;2022-11-06T17:12:11;10.10;;;4.88;;
35324;SDS011;35135;47.510;19.036;2022-11-06T17:14:41;10.43;;;4.90;;
35324;SDS011;35135;47.510;19.036;2022-11-06T17:17:08;9.02;;;4.72;;
35324;SDS011;35135;47.510;19.036;2022-11-06T17:19:49;9.90;;;4.88;;
35324;SDS011;35135;47.510;19.036;2022-11-06T17:22:16;10.40;;;5.20;;
35324;SDS011;35135;47.510;19.036;2022-11-06T17:24:41;13.23;;;5.60;;
35324;SDS011;35135;47.510;19.036;2022-11-06T17:27:07;13.13;;;5.40;;
35324;SDS011;35135;47.510;19.036;2022-11-06T17:29:33;10.98;;;5.30;;
35324;SDS011;35135;47.510;19.036;2022-11-06T17:32:00;9.63;;;5.60;;